Time;durP1;ratioP1;P1;durP2;ratioP2;P2;SDS_P1;SDS_P2;PMS_P1;PMS_P2;Temp;Humidity;BMP_temperature;BMP_pressure;BME280_temperature;BME280_humidity;BME280_pressure;Samples;Min_cycle;Max_cycle;Signal;HPM_P1;HPM_P2
2022/01/31 00:00:16;;;;;;;28.40;13.55;;;4.60;88.90;;;;;;5117396;27;20035;-79
2022/01/31 00:02:43;;;;;;;41.47;19.80;;;4.60;88.70;;;;;;5099907;27;20117;-78
2022/01/31 00:05:09;;;;;;;43.10;21.23;;;4.60;89.00;;;;;;5100452;27;20035;-79
2022/01/31 00:07:35;;;;;;;33.13;17.92;;;4.60;88.80;;;;;;5099908;27;20042;-79
2022/01/31 00:10:06;;;;;;;27.52;11.98;;;4.60;88.70;;;;;;5116843;27;20293;-80
2022/01/31 00:12:38;;;;;;;22.63;10.70;;;4.60;88.70;;;;;;5117048;27;20092;-80
2022/01/31 00:15:04;;;;;;;20.45;9.38;;;4.60;88.90;;;;;;5116857;27;20073;-80
2022/01/31 00:17:30;;;;;;;20.20;10.73;;;4.60;88.60;;;;;;5116624;27;20043;-81
2022/01/31 00:19:56;;;;;;;22.05;9.90;;;4.60;89.00;;;;;;5082986;27;20533;-79
2022/01/31 00:22:21;;;;;;;23.15;9.48;;;4.60;88.80;;;;;;5083126;27;20424;-80
2022/01/31 00:24:49;;;;;;;24.92;10.23;;;4.60;89.00;;;;;;5117061;27;20035;-79
2022/01/31 00:27:14;;;;;;;24.92;10.40;;;4.60;89.70;;;;;;5083326;27;20081;-80
2022/01/31 00:29:40;;;;;;;24.02;8.52;;;4.60;90.10;;;;;;5099714;27;20071;-79
2022/01/31 00:32:06;;;;;;;23.88;8.48;;;4.60;90.10;;;;;;5117102;27;20047;-78
2022/01/31 00:34:32;;;;;;;23.40;9.15;;;4.50;89.90;;;;;;5117032;27;20043;-79
2022/01/31 00:36:58;;;;;;;28.33;9.30;;;4.60;90.20;;;;;;5116677;27;20038;-79
2022/01/31 00:39:24;;;;;;;17.10;6.43;;;4.50;90.50;;;;;;5082704;27;20483;-78
2022/01/31 00:41:50;;;;;;;26.88;10.73;;;4.50;91.10;;;;;;5099659;27;20115;-79
2022/01/31 00:46:46;;;;;;;24.10;9.48;;;4.50;91.50;;;;;;5116841;27;20039;-80
2022/01/31 00:49:23;;;;;;;21.67;10.55;;;4.40;91.30;;;;;;5099325;27;20043;-79
2022/01/31 00:51:49;;;;;;;17.42;6.88;;;4.50;91.60;;;;;;5116638;27;20047;-80
2022/01/31 00:54:15;;;;;;;28.35;9.52;;;4.40;91.70;;;;;;5116210;27;20084;-79
2022/01/31 00:56:40;;;;;;;22.67;9.30;;;4.30;92.50;;;;;;5099662;27;20035;-79
2022/01/31 00:59:06;;;;;;;24.35;10.50;;;4.30;92.30;;;;;;5116008;27;20457;-79
2022/01/31 01:01:31;;;;;;;20.85;9.57;;;4.30;93.10;;;;;;5116221;27;20035;-80
2022/01/31 01:03:57;;;;;;;25.40;11.02;;;4.40;92.50;;;;;;5116221;27;20039;-80
2022/01/31 01:06:23;;;;;;;30.20;12.48;;;4.30;92.90;;;;;;5116150;27;20551;-79
2022/01/31 01:08:48;;;;;;;26.48;10.88;;;4.30;92.50;;;;;;5082081;27;20035;-80
2022/01/31 01:11:14;;;;;;;19.30;10.45;;;4.20;92.80;;;;;;5115941;27;20035;-80
2022/01/31 01:13:40;;;;;;;17.92;9.65;;;4.30;92.60;;;;;;5115912;27;20039;-79
2022/01/31 01:16:05;;;;;;;17.58;8.25;;;4.30;92.40;;;;;;5112313;28;20100;-80
2022/01/31 01:18:31;;;;;;;24.45;9.85;;;4.20;92.40;;;;;;5112523;28;20039;-79
2022/01/31 01:20:57;;;;;;;16.92;8.68;;;4.20;92.50;;;;;;5095427;28;20127;-79
2022/01/31 01:23:23;;;;;;;23.52;11.40;;;4.10;92.80;;;;;;5078578;28;20050;-79
2022/01/31 01:25:49;;;;;;;15.07;7.65;;;4.10;92.90;;;;;;5112351;28;20043;-79
2022/01/31 01:28:15;;;;;;;11.90;6.93;;;4.00;92.80;;;;;;5111781;28;20515;-81
2022/01/31 01:30:41;;;;;;;11.27;6.18;;;4.10;92.20;;;;;;5111931;28;20039;-79
2022/01/31 01:33:11;;;;;;;12.80;5.15;;;4.00;92.40;;;;;;5095215;28;20047;-79
2022/01/31 01:35:38;;;;;;;7.97;4.38;;;3.90;92.30;;;;;;5096112;28;20043;-80
2022/01/31 01:38:07;;;;;;;11.10;5.32;;;3.90;92.50;;;;;;5095362;28;20169;-79
2022/01/31 01:40:40;;;;;;;14.57;4.68;;;3.80;93.00;;;;;;5095605;28;20491;-80
2022/01/31 01:43:06;;;;;;;7.40;4.15;;;3.90;92.70;;;;;;5112436;28;20032;-80
2022/01/31 01:45:32;;;;;;;8.50;4.57;;;3.80;93.20;;;;;;5095323;28;20073;-81
2022/01/31 01:47:58;;;;;;;11.65;4.18;;;3.80;93.80;;;;;;5095167;28;20041;-79
2022/01/31 01:50:24;;;;;;;10.25;4.18;;;3.80;93.40;;;;;;5111959;28;20032;-79
2022/01/31 01:52:52;;;;;;;9.98;4.15;;;3.80;94.10;;;;;;5112089;28;20089;-80
2022/01/31 01:55:18;;;;;;;8.57;3.88;;;3.80;94.10;;;;;;5095117;28;20032;-79
2022/01/31 01:57:44;;;;;;;8.73;4.05;;;3.80;94.40;;;;;;5095232;28;20093;-80
2022/01/31 02:00:15;;;;;;;12.40;4.68;;;3.90;94.60;;;;;;5112219;28;20031;-80
2022/01/31 02:02:45;;;;;;;14.25;5.95;;;3.90;94.10;;;;;;5112015;28;20560;-79
2022/01/31 02:05:12;;;;;;;12.18;6.53;;;3.90;95.00;;;;;;5094966;28;20090;-80
2022/01/31 02:07:39;;;;;;;16.40;7.45;;;4.00;94.80;;;;;;5094908;28;20043;-80
2022/01/31 02:10:06;;;;;;;17.02;7.47;;;4.00;95.70;;;;;;5111728;28;20127;-81
2022/01/31 02:12:47;;;;;;;19.15;7.75;;;4.00;95.10;;;;;;5111798;28;20036;-79
2022/01/31 02:15:14;;;;;;;14.15;6.60;;;4.10;94.30;;;;;;5077909;28;20063;-81
2022/01/31 02:17:40;;;;;;;17.65;7.65;;;4.10;94.80;;;;;;5078432;28;20062;-79
2022/01/31 02:20:09;;;;;;;11.77;5.95;;;4.20;94.70;;;;;;5094758;28;20325;-79
2022/01/31 02:22:38;;;;;;;14.27;5.22;;;4.20;95.70;;;;;;5112009;28;20047;-80
2022/01/31 02:25:04;;;;;;;14.05;7.63;;;4.30;95.70;;;;;;5112060;28;20048;-79
2022/01/31 02:27:32;;;;;;;17.73;6.20;;;4.50;94.80;;;;;;5111746;28;20092;-81
2022/01/31 02:29:59;;;;;;;12.45;4.88;;;4.60;95.70;;;;;;5111626;28;20040;-80
2022/01/31 02:32:24;;;;;;;12.40;5.47;;;4.60;95.30;;;;;;5095062;28;20035;-80
2022/01/31 02:34:51;;;;;;;18.02;5.80;;;4.70;95.30;;;;;;5111590;28;20491;-81
2022/01/31 02:37:17;;;;;;;19.98;6.22;;;4.80;95.50;;;;;;5094632;28;20039;-80
2022/01/31 02:39:43;;;;;;;23.88;6.10;;;5.00;95.40;;;;;;5077969;28;20046;-81
2022/01/31 02:42:09;;;;;;;19.77;6.05;;;5.10;95.30;;;;;;5098289;28;20506;-80
2022/01/31 02:44:42;;;;;;;19.33;5.03;;;5.10;95.30;;;;;;5115335;28;20043;-80
2022/01/31 02:47:16;;;;;;;29.45;7.00;;;5.30;95.50;;;;;;5115507;28;20061;-82
2022/01/31 02:52:20;;;;;;;19.33;5.50;;;5.60;95.30;;;;;;5100283;28;20105;-80
2022/01/31 02:54:47;;;;;;;24.65;7.25;;;5.70;95.10;;;;;;5098484;28;20565;-79
2022/01/31 02:57:13;;;;;;;29.15;5.78;;;5.80;94.90;;;;;;5098261;28;20483;-80
2022/01/31 02:59:39;;;;;;;32.33;6.03;;;5.90;94.50;;;;;;5081231;28;20050;-80
2022/01/31 03:02:06;;;;;;;27.90;7.13;;;6.00;94.00;;;;;;5115206;28;20039;-81
2022/01/31 03:04:32;;;;;;;21.50;5.63;;;6.10;93.80;;;;;;5098289;28;20392;-81
2022/01/31 03:06:57;;;;;;;18.58;5.43;;;6.10;93.50;;;;;;5114945;28;20042;-80
2022/01/31 03:09:23;;;;;;;14.43;4.07;;;6.10;93.10;;;;;;5097958;28;20035;-79
2022/01/31 03:11:49;;;;;;;28.33;5.88;;;6.20;92.60;;;;;;5098013;28;20038;-82
2022/01/31 03:14:19;;;;;;;19.67;4.72;;;6.20;92.30;;;;;;5081589;27;20071;-81
2022/01/31 03:16:46;;;;;;;25.42;5.47;;;6.30;91.90;;;;;;5117857;27;20055;-80
2022/01/31 03:19:13;;;;;;;14.48;3.83;;;6.30;91.70;;;;;;5101208;27;20039;-82
2022/01/31 03:21:39;;;;;;;29.80;6.03;;;6.30;91.40;;;;;;5118400;27;20145;-81
2022/01/31 03:24:06;;;;;;;18.40;3.95;;;6.40;90.90;;;;;;5118003;27;20126;-82
2022/01/31 03:26:32;;;;;;;18.75;3.20;;;6.30;90.90;;;;;;5118056;27;20054;-82
2022/01/31 03:28:57;;;;;;;16.90;3.80;;;6.40;90.50;;;;;;5100767;27;20043;-80
2022/01/31 03:31:24;;;;;;;12.18;2.55;;;6.40;89.80;;;;;;5118053;27;20035;-82
2022/01/31 03:33:51;;;;;;;13.20;2.90;;;6.40;89.40;;;;;;5100893;27;20039;-79
2022/01/31 03:36:17;;;;;;;13.48;2.75;;;6.30;89.60;;;;;;5118073;27;20450;-79
2022/01/31 03:38:44;;;;;;;22.35;4.45;;;6.30;90.00;;;;;;5118104;27;20229;-79
2022/01/31 03:41:11;;;;;;;16.63;4.03;;;6.20;90.50;;;;;;5100826;27;20440;-79
2022/01/31 03:43:37;;;;;;;12.30;2.70;;;6.10;91.20;;;;;;5100690;27;20047;-79
2022/01/31 03:46:03;;;;;;;13.07;2.00;;;5.90;89.20;;;;;;5083853;27;20039;-82
2022/01/31 03:48:29;;;;;;;17.17;3.22;;;5.60;88.60;;;;;;5100554;27;20031;-80
2022/01/31 03:50:56;;;;;;;18.45;4.05;;;5.50;89.40;;;;;;5100393;27;20476;-79
2022/01/31 03:53:22;;;;;;;15.77;3.55;;;5.50;90.20;;;;;;5116840;27;20390;-82
2022/01/31 03:55:48;;;;;;;20.95;3.92;;;5.60;90.50;;;;;;5117590;27;20126;-82
2022/01/31 03:58:13;;;;;;;22.70;3.80;;;5.60;90.70;;;;;;5100313;27;20035;-81
2022/01/31 04:00:39;;;;;;;19.83;3.72;;;5.60;90.90;;;;;;5117289;27;20039;-80
2022/01/31 04:03:05;;;;;;;18.35;3.83;;;5.70;91.20;;;;;;5117582;27;20039;-81
2022/01/31 04:05:31;;;;;;;30.02;5.22;;;5.80;91.10;;;;;;5117264;27;20047;-81
2022/01/31 04:07:58;;;;;;;28.80;6.20;;;5.80;91.00;;;;;;5100193;27;20115;-81
2022/01/31 04:10:25;;;;;;;19.95;3.97;;;5.90;90.70;;;;;;5083185;27;20096;-80
2022/01/31 04:12:51;;;;;;;14.27;2.08;;;6.00;89.90;;;;;;5117159;27;20042;-82
2022/01/31 04:15:17;;;;;;;9.82;2.88;;;6.00;89.10;;;;;;5099880;27;20059;-81
2022/01/31 04:17:43;;;;;;;13.13;2.88;;;6.00;88.90;;;;;;5117122;27;20047;-82
2022/01/31 04:20:09;;;;;;;8.30;2.10;;;5.80;89.30;;;;;;5100207;27;20035;-81
2022/01/31 04:22:47;;;;;;;11.18;2.67;;;5.70;89.60;;;;;;5083193;27;20494;-81
2022/01/31 04:25:28;;;;;;;14.38;3.22;;;5.70;89.50;;;;;;5100095;27;20158;-80
2022/01/31 04:28:01;;;;;;;17.98;2.47;;;5.70;89.60;;;;;;5116996;27;20049;-82
2022/01/31 04:30:29;;;;;;;17.13;3.65;;;5.70;90.00;;;;;;5116970;27;20035;-81
2022/01/31 04:32:55;;;;;;;20.27;3.65;;;5.70;90.20;;;;;;5116923;27;20391;-83
2022/01/31 04:35:21;;;;;;;14.57;2.55;;;5.70;90.40;;;;;;5082745;27;20050;-81
2022/01/31 04:37:46;;;;;;;11.90;2.38;;;5.80;91.00;;;;;;5099678;27;20031;-78
2022/01/31 04:40:14;;;;;;;3.97;1.17;;;5.80;90.60;;;;;;5082520;27;20112;-78
2022/01/31 04:42:43;;;;;;;4.32;1.40;;;5.70;89.20;;;;;;5116894;27;20398;-81
2022/01/31 04:45:09;;;;;;;10.65;2.00;;;5.60;89.60;;;;;;5116508;27;20509;-79
2022/01/31 04:47:35;;;;;;;6.25;1.77;;;5.50;90.40;;;;;;5116396;27;20039;-82
2022/01/31 04:50:01;;;;;;;8.60;1.55;;;5.50;90.50;;;;;;5116133;27;20047;-79
2022/01/31 04:52:27;;;;;;;7.03;1.55;;;5.50;90.40;;;;;;5099303;27;20035;-80
2022/01/31 04:54:52;;;;;;;13.35;2.45;;;5.40;90.40;;;;;;5116715;27;20043;-81
2022/01/31 04:57:18;;;;;;;15.25;2.15;;;5.40;90.90;;;;;;5099701;27;20038;-81
2022/01/31 04:59:44;;;;;;;13.40;2.08;;;5.40;91.10;;;;;;5082548;27;20072;-81
2022/01/31 05:02:10;;;;;;;17.55;2.72;;;5.30;91.20;;;;;;5082808;27;20039;-81
2022/01/31 05:04:36;;;;;;;8.93;1.80;;;5.30;91.60;;;;;;5082556;27;20518;-80
2022/01/31 05:07:02;;;;;;;18.77;3.63;;;5.30;91.80;;;;;;5099309;27;20074;-81
2022/01/31 05:09:28;;;;;;;12.02;2.28;;;5.30;92.20;;;;;;5116131;27;20419;-81
2022/01/31 05:11:54;;;;;;;14.75;2.95;;;5.30;92.20;;;;;;5116278;27;20039;-80
2022/01/31 05:14:19;;;;;;;17.27;3.47;;;5.40;92.30;;;;;;5116495;27;20031;-80
2022/01/31 05:16:45;;;;;;;10.55;2.42;;;5.40;92.30;;;;;;5082149;27;20483;-82
2022/01/31 05:19:11;;;;;;;14.70;2.40;;;5.40;92.30;;;;;;5098862;27;20121;-81
2022/01/31 05:21:38;;;;;;;11.60;2.55;;;5.40;92.30;;;;;;5116140;27;20043;-79
2022/01/31 05:24:04;;;;;;;20.75;3.58;;;5.40;92.30;;;;;;5082294;27;20039;-81
2022/01/31 05:26:30;;;;;;;12.48;1.88;;;5.30;92.50;;;;;;5115826;27;20073;-81
2022/01/31 05:28:56;;;;;;;11.45;2.78;;;5.40;92.90;;;;;;5098965;27;20035;-81
2022/01/31 05:31:22;;;;;;;10.93;1.80;;;5.30;92.80;;;;;;5099151;27;20068;-81
2022/01/31 05:33:47;;;;;;;11.45;2.13;;;5.40;92.90;;;;;;5115804;27;20499;-82
2022/01/31 05:36:13;;;;;;;23.38;4.18;;;5.50;92.70;;;;;;5115950;27;20038;-80
2022/01/31 05:38:40;;;;;;;16.55;3.70;;;5.40;92.80;;;;;;5098773;27;20475;-81
2022/01/31 05:41:08;;;;;;;15.18;2.85;;;5.50;92.90;;;;;;5115527;28;20055;-81
2022/01/31 05:43:35;;;;;;;18.40;3.63;;;5.50;92.80;;;;;;5115872;28;20043;-81
2022/01/31 05:46:01;;;;;;;12.73;2.78;;;5.60;92.90;;;;;;5115597;28;20043;-80
2022/01/31 05:48:27;;;;;;;9.45;2.15;;;5.60;92.80;;;;;;5115731;28;20406;-79
2022/01/31 05:50:53;;;;;;;8.45;2.20;;;5.60;92.40;;;;;;5115442;28;20035;-80
2022/01/31 05:53:19;;;;;;;16.75;2.20;;;5.70;92.10;;;;;;5115728;28;20432;-79
2022/01/31 05:55:45;;;;;;;20.63;4.28;;;5.70;92.30;;;;;;5115462;28;20179;-80
2022/01/31 05:58:11;;;;;;;13.00;3.45;;;5.70;92.40;;;;;;5115437;28;20072;-79
2022/01/31 06:00:37;;;;;;;16.63;3.22;;;5.70;92.80;;;;;;5098668;28;20039;-81
2022/01/31 06:03:03;;;;;;;18.25;3.08;;;5.70;92.70;;;;;;5115213;28;20118;-79
2022/01/31 06:05:29;;;;;;;7.93;2.13;;;5.60;92.80;;;;;;5115373;28;20118;-80
2022/01/31 06:07:55;;;;;;;12.60;1.88;;;5.70;92.60;;;;;;5115260;28;20078;-79
2022/01/31 06:10:24;;;;;;;9.93;1.83;;;5.70;92.00;;;;;;5115534;28;20129;-79
2022/01/31 06:12:51;;;;;;;10.10;2.17;;;5.70;91.50;;;;;;5115349;28;20082;-79
2022/01/31 06:15:19;;;;;;;10.63;2.40;;;5.70;91.40;;;;;;5082429;27;20112;-79
2022/01/31 06:17:44;;;;;;;19.60;3.70;;;5.60;91.60;;;;;;5102586;27;20086;-79
2022/01/31 06:20:10;;;;;;;16.30;3.85;;;5.70;91.70;;;;;;5119153;27;20517;-80
2022/01/31 06:22:44;;;;;;;10.68;1.77;;;5.60;92.00;;;;;;5102371;27;20061;-79
2022/01/31 06:25:11;;;;;;;13.63;2.78;;;5.60;92.10;;;;;;5119366;27;20039;-78
2022/01/31 06:27:37;;;;;;;9.73;1.58;;;5.60;91.90;;;;;;5102611;27;20043;-79
2022/01/31 06:30:03;;;;;;;12.40;3.00;;;5.60;91.90;;;;;;5118972;27;20543;-80
2022/01/31 06:32:29;;;;;;;11.07;2.40;;;5.60;92.00;;;;;;5102003;27;20042;-79
2022/01/31 06:34:57;;;;;;;12.30;2.63;;;5.60;92.30;;;;;;5102276;27;20039;-79
2022/01/31 06:37:22;;;;;;;22.10;4.20;;;5.60;92.50;;;;;;5102417;27;20043;-80
2022/01/31 06:39:48;;;;;;;18.83;4.72;;;5.50;92.60;;;;;;5118816;27;20524;-80
2022/01/31 06:42:15;;;;;;;23.48;4.43;;;5.60;92.90;;;;;;5119207;27;20031;-78
2022/01/31 06:44:41;;;;;;;15.63;3.45;;;5.60;93.30;;;;;;5118973;27;20050;-80
2022/01/31 06:47:06;;;;;;;20.13;3.47;;;5.70;93.40;;;;;;5118924;27;20039;-79
2022/01/31 06:49:32;;;;;;;18.80;4.45;;;5.70;93.30;;;;;;5118379;27;20563;-81
2022/01/31 06:51:58;;;;;;;19.45;4.38;;;5.70;93.40;;;;;;5118397;27;20380;-79
2022/01/31 06:54:24;;;;;;;16.50;3.95;;;5.80;93.70;;;;;;5118590;27;20035;-81
2022/01/31 06:56:50;;;;;;;22.38;4.85;;;5.70;93.80;;;;;;5118468;27;20035;-79
2022/01/31 06:59:16;;;;;;;27.00;4.75;;;5.80;94.00;;;;;;5118459;27;20046;-79
2022/01/31 07:01:41;;;;;;;24.90;4.80;;;5.80;94.00;;;;;;5101404;27;20043;-78
2022/01/31 07:04:07;;;;;;;30.83;5.90;;;5.80;94.20;;;;;;5101636;27;20031;-81
2022/01/31 07:06:33;;;;;;;21.63;4.35;;;5.70;94.30;;;;;;5101437;27;20486;-79
2022/01/31 07:08:59;;;;;;;23.50;3.90;;;5.80;94.40;;;;;;5101179;27;20039;-80
2022/01/31 07:11:27;;;;;;;22.52;5.45;;;5.90;94.40;;;;;;5101277;27;20039;-80
2022/01/31 07:14:08;;;;;;;29.05;5.18;;;5.90;94.30;;;;;;5101223;27;20039;-81
2022/01/31 07:16:34;;;;;;;26.65;3.88;;;5.90;94.30;;;;;;5100990;27;20043;-81
2022/01/31 07:19:07;;;;;;;18.30;4.10;;;5.90;94.30;;;;;;5101230;27;20082;-79
2022/01/31 07:21:37;;;;;;;19.30;4.63;;;6.00;94.40;;;;;;5118447;27;20542;-78
2022/01/31 07:26:50;;;;;;;31.35;4.93;;;5.90;94.60;;;;;;5116903;27;20055;-79
2022/01/31 07:29:17;;;;;;;27.25;6.72;;;6.00;94.80;;;;;;5117741;27;20077;-80
2022/01/31 07:31:45;;;;;;;27.10;5.28;;;5.90;94.90;;;;;;5100736;27;20042;-81
2022/01/31 07:34:13;;;;;;;29.88;5.20;;;5.90;95.00;;;;;;5117583;27;20046;-80
2022/01/31 07:36:39;;;;;;;44.38;6.88;;;6.00;95.20;;;;;;5100280;27;20046;-81
2022/01/31 07:39:05;;;;;;;23.70;5.30;;;6.00;95.10;;;;;;5100580;27;20409;-80
2022/01/31 07:41:32;;;;;;;15.45;4.00;;;6.10;94.80;;;;;;5101049;27;20050;-79
2022/01/31 07:43:58;;;;;;;20.15;5.97;;;6.10;94.60;;;;;;5117596;27;20038;-82
2022/01/31 07:46:23;;;;;;;19.30;6.00;;;6.10;93.80;;;;;;5100789;27;20110;-80
2022/01/31 07:48:49;;;;;;;29.42;5.78;;;6.10;93.70;;;;;;5117079;27;20050;-79
2022/01/31 07:51:17;;;;;;;13.10;3.60;;;6.10;93.10;;;;;;5100581;27;20487;-80
2022/01/31 07:53:43;;;;;;;18.35;2.78;;;6.20;92.90;;;;;;5117646;27;20121;-81
2022/01/31 07:56:10;;;;;;;16.15;2.90;;;6.10;93.00;;;;;;5117634;27;20035;-82
2022/01/31 07:58:36;;;;;;;12.70;3.03;;;6.10;93.30;;;;;;5117628;27;20508;-80
2022/01/31 08:01:04;;;;;;;19.60;3.17;;;6.10;93.70;;;;;;5100390;27;20039;-80
2022/01/31 08:03:30;;;;;;;22.05;3.30;;;6.00;94.00;;;;;;5117608;27;20036;-81
2022/01/31 08:05:57;;;;;;;24.13;4.88;;;6.00;94.10;;;;;;5100199;27;20487;-81
2022/01/31 08:08:23;;;;;;;18.88;3.70;;;6.00;94.30;;;;;;5117246;27;20039;-80
2022/01/31 08:10:52;;;;;;;20.20;4.15;;;6.00;94.40;;;;;;5117408;27;20043;-82
2022/01/31 08:13:18;;;;;;;14.02;3.25;;;6.10;94.50;;;;;;5100009;27;20166;-82
2022/01/31 08:15:49;;;;;;;17.67;3.78;;;6.10;94.60;;;;;;5099638;27;20083;-82
2022/01/31 08:18:15;;;;;;;20.08;5.57;;;6.10;94.40;;;;;;5116692;27;20058;-83
2022/01/31 08:20:41;;;;;;;19.35;3.83;;;6.10;94.40;;;;;;5116801;27;20039;-82
2022/01/31 08:23:08;;;;;;;15.43;3.10;;;6.20;94.50;;;;;;5083180;27;20066;-83
2022/01/31 08:25:36;;;;;;;13.30;2.83;;;6.20;94.40;;;;;;5116589;27;20088;-81
2022/01/31 08:28:08;;;;;;;19.88;3.28;;;6.20;94.40;;;;;;5099699;27;20043;-81
2022/01/31 08:30:43;;;;;;;14.52;3.42;;;6.20;94.30;;;;;;5100225;27;20039;-83
2022/01/31 08:33:32;;;;;;;21.77;4.20;;;6.30;94.20;;;;;;5101291;27;20065;-82
2022/01/31 08:35:58;;;;;;;11.25;4.55;;;6.30;94.00;;;;;;5116580;27;20039;-81
2022/01/31 08:38:23;;;;;;;25.40;16.95;;;6.30;94.00;;;;;;5081860;27;20099;-81
2022/01/31 08:40:49;;;;;;;18.83;4.72;;;6.40;93.40;;;;;;5082830;27;20039;-83
2022/01/31 08:43:17;;;;;;;14.48;6.35;;;6.30;93.40;;;;;;5082821;27;20039;-81
2022/01/31 08:45:43;;;;;;;15.95;3.30;;;6.30;93.50;;;;;;5099738;27;20039;-83
2022/01/31 08:48:08;;;;;;;13.25;3.30;;;6.30;93.60;;;;;;5082371;27;20176;-82
2022/01/31 08:50:35;;;;;;;10.25;2.17;;;6.30;93.70;;;;;;5082434;27;20121;-82
2022/01/31 08:53:01;;;;;;;7.88;3.45;;;6.30;93.50;;;;;;5082357;27;20043;-83
2022/01/31 08:55:27;;;;;;;10.65;3.35;;;6.40;93.20;;;;;;5116470;27;20383;-81
2022/01/31 08:57:55;;;;;;;14.77;2.72;;;6.40;93.10;;;;;;5116481;27;20483;-81
2022/01/31 09:00:22;;;;;;;13.50;2.90;;;6.40;93.00;;;;;;5116139;27;20057;-82
2022/01/31 09:03:40;;;;;;;11.10;2.70;;;6.40;92.70;;;;;;5116170;27;20435;-82
2022/01/31 09:05:34;;;;;;;9.18;1.63;;;6.50;92.50;;;;;;5105526;27;20467;-81
2022/01/31 09:07:59;;;;;;;17.73;3.08;;;6.40;92.30;;;;;;5115887;27;20070;-82
2022/01/31 09:10:25;;;;;;;14.20;2.58;;;6.40;92.10;;;;;;5098935;27;20046;-82
2022/01/31 09:12:51;;;;;;;13.18;1.77;;;6.40;92.00;;;;;;5081983;27;20077;-82
2022/01/31 09:15:17;;;;;;;7.43;2.10;;;6.40;91.80;;;;;;5098969;27;20047;-80
2022/01/31 09:17:42;;;;;;;11.52;2.80;;;6.50;91.70;;;;;;5115913;27;20042;-79
2022/01/31 09:20:09;;;;;;;10.57;3.00;;;6.50;91.70;;;;;;5115738;27;20035;-80
2022/01/31 09:22:35;;;;;;;11.90;2.40;;;6.50;91.60;;;;;;5115867;27;20074;-79
2022/01/31 09:25:01;;;;;;;7.45;1.67;;;6.50;91.30;;;;;;5115976;27;20101;-79
2022/01/31 09:27:28;;;;;;;13.38;2.22;;;6.50;91.30;;;;;;5098628;28;20046;-80
2022/01/31 09:29:54;;;;;;;18.77;2.38;;;6.50;91.10;;;;;;5098645;27;20046;-78
2022/01/31 09:32:23;;;;;;;11.82;2.83;;;6.60;91.10;;;;;;5115654;27;20501;-78
2022/01/31 09:34:50;;;;;;;15.32;2.08;;;6.60;91.10;;;;;;5099188;27;20035;-78
2022/01/31 09:37:19;;;;;;;18.35;2.92;;;6.70;90.50;;;;;;5115593;28;20035;-81
2022/01/31 09:39:46;;;;;;;12.93;2.20;;;6.80;90.30;;;;;;5115796;27;20047;-79
2022/01/31 09:42:15;;;;;;;14.20;2.30;;;6.90;89.90;;;;;;5098830;28;20050;-80
2022/01/31 09:45:06;;;;;;;13.52;2.45;;;6.90;90.00;;;;;;5116396;28;20043;-79
2022/01/31 09:50:12;;;;;;;13.45;3.00;;;7.00;89.80;;;;;;5102121;27;20039;-80
2022/01/31 09:52:38;;;;;;;12.73;3.70;;;6.90;90.20;;;;;;5102714;27;20031;-81
2022/01/31 09:55:06;;;;;;;24.85;3.58;;;7.00;90.10;;;;;;5119984;27;20382;-81
2022/01/31 09:57:31;;;;;;;17.45;3.25;;;6.90;90.00;;;;;;5102951;27;20444;-81
2022/01/31 09:59:57;;;;;;;17.83;2.50;;;7.00;90.40;;;;;;5085703;27;20039;-81
2022/01/31 10:02:23;;;;;;;7.53;2.60;;;7.00;90.50;;;;;;5102821;27;20047;-81
2022/01/31 10:04:49;;;;;;;16.25;2.42;;;7.00;90.80;;;;;;5119501;27;20046;-81
2022/01/31 10:07:16;;;;;;;12.25;2.47;;;7.00;90.90;;;;;;5102733;27;20031;-81
2022/01/31 10:09:47;;;;;;;8.48;2.03;;;7.00;90.60;;;;;;5119318;27;20035;-81
2022/01/31 10:17:39;;;;;;;9.18;2.25;;;6.80;90.70;;;;;;5119278;27;20509;-81
2022/01/31 10:20:29;;;;;;;13.15;2.33;;;6.90;90.90;;;;;;5119312;27;20047;-82
2022/01/31 10:22:55;;;;;;;14.07;1.80;;;6.90;90.50;;;;;;5102380;27;20043;-81
2022/01/31 10:25:22;;;;;;;13.77;2.45;;;6.80;90.70;;;;;;5102264;27;20146;-83
2022/01/31 10:27:51;;;;;;;8.63;1.90;;;6.90;90.40;;;;;;5119090;27;20122;-83
2022/01/31 10:30:24;;;;;;;10.90;2.45;;;6.90;90.30;;;;;;5101169;27;20491;-82
2022/01/31 10:32:52;;;;;;;8.80;1.40;;;6.90;90.20;;;;;;5118925;27;20043;-82
2022/01/31 10:35:24;;;;;;;6.40;1.75;;;6.90;90.20;;;;;;5096299;27;20035;-82
2022/01/31 10:37:56;;;;;;;10.82;1.75;;;6.90;90.30;;;;;;5112447;27;20027;-82
2022/01/31 10:52:00;;;;;;;9.98;1.77;;;6.80;91.70;;;;;;5118869;27;20035;-80
2022/01/31 10:57:04;;;;;;;11.00;2.27;;;6.70;91.90;;;;;;5118862;27;20035;-81
2022/01/31 10:59:36;;;;;;;14.25;2.53;;;6.60;92.00;;;;;;5101366;27;20046;-81
2022/01/31 11:02:08;;;;;;;17.13;2.85;;;6.70;92.50;;;;;;5118033;27;20494;-80
2022/01/31 11:04:33;;;;;;;11.80;2.25;;;6.70;92.90;;;;;;5118505;27;20051;-78
2022/01/31 11:07:08;;;;;;;17.60;4.00;;;6.70;93.20;;;;;;5101450;27;20135;-80
2022/01/31 11:09:33;;;;;;;;;;;6.70;93.40;;;;;;5118930;27;20144;-79
2022/01/31 11:12:00;;;;;;;21.60;4.10;;;6.70;93.70;;;;;;5118036;27;19963;-79
2022/01/31 11:14:26;;;;;;;24.92;5.32;;;6.80;93.90;;;;;;5118182;27;20172;-79
2022/01/31 11:16:56;;;;;;;27.77;5.40;;;6.80;94.10;;;;;;5118002;27;20134;-78
2022/01/31 11:19:31;;;;;;;25.52;5.55;;;6.80;94.20;;;;;;5118010;27;20047;-78
2022/01/31 11:22:04;;;;;;;23.08;3.88;;;7.00;94.50;;;;;;5101441;27;20100;-79
2022/01/31 11:24:36;;;;;;;22.50;5.00;;;7.10;94.30;;;;;;5118245;27;20146;-79
2022/01/31 11:27:07;;;;;;;20.30;4.13;;;7.30;94.30;;;;;;5118008;27;20087;-79
2022/01/31 11:29:36;;;;;;;23.77;3.78;;;7.40;94.30;;;;;;5117960;27;20100;-79
2022/01/31 11:32:03;;;;;;;23.33;4.97;;;7.40;93.90;;;;;;5101085;27;20134;-78
2022/01/31 11:34:30;;;;;;;29.20;6.78;;;7.40;93.50;;;;;;5117574;27;20039;-78
2022/01/31 11:36:56;;;;;;;28.05;6.15;;;7.40;93.40;;;;;;5117998;27;20080;-79
2022/01/31 11:39:23;;;;;;;27.92;5.32;;;7.40;93.20;;;;;;5100609;27;20474;-78
2022/01/31 11:41:56;;;;;;;27.65;6.43;;;7.40;93.30;;;;;;5117994;27;20077;-78
2022/01/31 11:44:49;;;;;;;25.85;5.38;;;7.40;93.50;;;;;;5100478;27;20077;-79
2022/01/31 11:47:21;;;;;;;29.02;4.80;;;7.50;93.30;;;;;;5116511;27;20038;-80
2022/01/31 11:49:55;;;;;;;24.85;5.00;;;7.60;92.80;;;;;;5130993;27;20758;-79
2022/01/31 11:52:22;;;;;;;23.13;4.60;;;7.80;92.80;;;;;;5114606;27;20386;-78
2022/01/31 11:54:59;;;;;;;25.77;4.63;;;7.90;92.70;;;;;;5116901;27;20118;-81
2022/01/31 11:57:34;;;;;;;18.40;3.97;;;8.10;92.50;;;;;;5100379;27;20039;-79
2022/01/31 12:00:04;;;;;;;17.83;4.20;;;8.30;92.30;;;;;;5117246;27;20126;-80
2022/01/31 12:02:33;;;;;;;19.77;4.40;;;8.30;91.30;;;;;;5117301;27;20042;-80
2022/01/31 12:05:06;;;;;;;15.80;3.22;;;8.20;90.90;;;;;;5100563;27;20046;-79
2022/01/31 12:07:44;;;;;;;15.07;2.70;;;8.20;90.60;;;;;;5117232;27;20078;-80
2022/01/31 12:10:33;;;;;;;14.80;3.13;;;8.10;90.30;;;;;;5116797;27;20039;-80
2022/01/31 12:24:46;;;;;;;34.67;13.82;;;7.90;90.10;;;;;;5116605;27;20510;-80
2022/01/31 12:27:17;;;;;;;37.30;11.50;;;7.80;90.50;;;;;;5099803;27;20041;-80
2022/01/31 12:29:46;;;;;;;36.70;11.73;;;7.90;90.60;;;;;;5116580;27;20053;-80
2022/01/31 12:32:20;;;;;;;58.28;23.15;;;7.90;90.60;;;;;;5099712;27;20035;-80
2022/01/31 12:35:09;;;;;;;62.72;22.30;;;7.90;90.70;;;;;;5099450;27;20108;-80
2022/01/31 12:37:39;;;;;;;39.13;15.70;;;7.90;90.90;;;;;;5116616;27;20068;-80
2022/01/31 12:40:08;;;;;;;38.20;7.15;;;8.00;90.90;;;;;;5116668;27;20050;-78
2022/01/31 12:45:09;;;;;;;;;;;7.90;90.80;;;;;;5117115;27;20134;-80
2022/01/31 12:47:35;;;;;;;29.33;6.47;;;7.90;90.90;;;;;;5117954;27;19938;-79
2022/01/31 12:50:20;;;;;;;22.73;5.65;;;7.90;90.50;;;;;;5100013;27;20487;-79
2022/01/31 12:52:46;;;;;;;26.13;6.68;;;7.90;90.80;;;;;;5099382;27;20046;-80
2022/01/31 12:55:13;;;;;;;31.10;7.35;;;7.90;91.00;;;;;;5082393;27;20035;-79
2022/01/31 12:57:50;;;;;;;25.48;5.10;;;7.90;90.50;;;;;;5116033;27;20038;-80
2022/01/31 13:00:30;;;;;;;20.80;5.63;;;7.90;90.70;;;;;;5116376;27;20039;-79
2022/01/31 13:02:56;;;;;;;24.83;6.20;;;7.90;90.80;;;;;;5116104;27;20039;-79
2022/01/31 13:05:32;;;;;;;34.70;6.78;;;7.80;90.80;;;;;;5082265;27;20047;-80
2022/01/31 13:07:58;;;;;;;29.95;5.95;;;7.80;90.70;;;;;;5115936;27;20039;-79
2022/01/31 13:10:23;;;;;;;21.52;7.35;;;7.90;90.30;;;;;;5115443;27;20043;-79
2022/01/31 13:13:00;;;;;;;16.85;5.90;;;7.90;90.20;;;;;;5098983;27;20121;-79
2022/01/31 13:15:26;;;;;;;23.70;4.90;;;7.90;90.20;;;;;;5098966;27;20058;-79
2022/01/31 13:18:03;;;;;;;27.50;7.43;;;7.80;90.20;;;;;;5115884;27;20483;-80
2022/01/31 13:20:29;;;;;;;28.70;5.05;;;7.90;90.20;;;;;;5098975;27;20043;-80
2022/01/31 13:22:55;;;;;;;29.65;7.45;;;7.80;90.30;;;;;;5098850;27;20037;-79
2022/01/31 13:25:21;;;;;;;27.17;6.57;;;7.80;90.40;;;;;;5115869;27;20043;-79
2022/01/31 13:27:47;;;;;;;29.42;6.32;;;7.70;90.50;;;;;;5115761;27;20046;-79
2022/01/31 13:30:25;;;;;;;37.08;6.38;;;7.80;90.40;;;;;;5098694;28;20483;-80
2022/01/31 13:32:52;;;;;;;32.90;8.80;;;7.80;90.70;;;;;;5115661;28;20171;-80
2022/01/31 13:35:21;;;;;;;26.58;6.63;;;7.70;90.70;;;;;;5082158;27;20031;-79